sensor_id;sensor_type;location;lat;lon;timestamp;P1;durP1;ratioP1;P2;durP2;ratioP2
2147;SDS011;1080;48.724;9.104;2022-10-17T00:01:13;6.83;;;1.87;;
2147;SDS011;1080;48.724;9.104;2022-10-17T00:03:40;5.00;;;2.10;;
2147;SDS011;1080;48.724;9.104;2022-10-17T00:06:08;4.27;;;1.87;;
2147;SDS011;1080;48.724;9.104;2022-10-17T00:08:36;4.07;;;2.03;;
2147;SDS011;1080;48.724;9.104;2022-10-17T00:11:06;3.03;;;1.83;;
2147;SDS011;1080;48.724;9.104;2022-10-17T00:13:34;1.60;;;1.50;;
2147;SDS011;1080;48.724;9.104;2022-10-17T00:16:01;6.50;;;1.90;;
2147;SDS011;1080;48.724;9.104;2022-10-17T00:18:30;4.70;;;2.00;;
2147;SDS011;1080;48.724;9.104;2022-10-17T00:20:57;2.40;;;2.17;;
2147;SDS011;1080;48.724;9.104;2022-10-17T00:23:24;2.73;;;2.13;;
2147;SDS011;1080;48.724;9.104;2022-10-17T00:25:58;2.77;;;2.00;;
2147;SDS011;1080;48.724;9.104;2022-10-17T00:28:26;4.10;;;2.10;;
2147;SDS011;1080;48.724;9.104;2022-10-17T00:30:56;6.00;;;2.97;;
2147;SDS011;1080;48.724;9.104;2022-10-17T00:33:24;5.47;;;2.20;;
2147;SDS011;1080;48.724;9.104;2022-10-17T00:35:53;2.40;;;1.97;;
2147;SDS011;1080;48.724;9.104;2022-10-17T00:38:27;4.23;;;2.40;;
2147;SDS011;1080;48.724;9.104;2022-10-17T00:40:54;4.10;;;2.10;;
2147;SDS011;1080;48.724;9.104;2022-10-17T00:43:22;4.23;;;3.30;;
2147;SDS011;1080;48.724;9.104;2022-10-17T00:45:49;10.87;;;2.10;;
2147;SDS011;1080;48.724;9.104;2022-10-17T00:48:16;9.17;;;2.13;;
2147;SDS011;1080;48.724;9.104;2022-10-17T00:50:44;3.00;;;2.30;;
2147;SDS011;1080;48.724;9.104;2022-10-17T00:53:15;4.23;;;2.10;;
2147;SDS011;1080;48.724;9.104;2022-10-17T00:55:44;5.90;;;2.40;;
2147;SDS011;1080;48.724;9.104;2022-10-17T00:58:14;3.60;;;2.03;;
2147;SDS011;1080;48.724;9.104;2022-10-17T01:00:41;2.57;;;2.37;;
2147;SDS011;1080;48.724;9.104;2022-10-17T01:03:08;4.60;;;2.30;;
2147;SDS011;1080;48.724;9.104;2022-10-17T01:05:35;2.40;;;1.90;;
2147;SDS011;1080;48.724;9.104;2022-10-17T01:08:03;2.80;;;2.20;;
2147;SDS011;1080;48.724;9.104;2022-10-17T01:10:32;3.00;;;2.47;;
2147;SDS011;1080;48.724;9.104;2022-10-17T01:13:06;3.37;;;2.50;;
2147;SDS011;1080;48.724;9.104;2022-10-17T01:15:39;4.40;;;2.00;;
2147;SDS011;1080;48.724;9.104;2022-10-17T01:18:17;2.90;;;2.30;;
2147;SDS011;1080;48.724;9.104;2022-10-17T01:21:01;2.27;;;1.90;;
2147;SDS011;1080;48.724;9.104;2022-10-17T01:23:51;2.20;;;2.10;;
2147;SDS011;1080;48.724;9.104;2022-10-17T01:26:43;9.97;;;2.30;;
2147;SDS011;1080;48.724;9.104;2022-10-17T01:29:27;3.83;;;2.23;;
2147;SDS011;1080;48.724;9.104;2022-10-17T01:32:02;5.57;;;2.47;;
2147;SDS011;1080;48.724;9.104;2022-10-17T01:34:33;3.37;;;2.27;;
2147;SDS011;1080;48.724;9.104;2022-10-17T01:37:12;4.70;;;2.40;;
2147;SDS011;1080;48.724;9.104;2022-10-17T01:39:45;8.27;;;2.87;;
2147;SDS011;1080;48.724;9.104;2022-10-17T01:42:16;4.17;;;2.20;;
2147;SDS011;1080;48.724;9.104;2022-10-17T01:44:46;4.30;;;2.40;;
2147;SDS011;1080;48.724;9.104;2022-10-17T01:47:20;6.07;;;2.00;;
2147;SDS011;1080;48.724;9.104;2022-10-17T01:49:51;2.33;;;2.10;;
2147;SDS011;1080;48.724;9.104;2022-10-17T01:52:22;2.40;;;2.20;;
2147;SDS011;1080;48.724;9.104;2022-10-17T01:54:52;8.77;;;2.53;;
2147;SDS011;1080;48.724;9.104;2022-10-17T01:57:23;7.00;;;2.57;;
2147;SDS011;1080;48.724;9.104;2022-10-17T01:59:54;3.30;;;2.30;;
2147;SDS011;1080;48.724;9.104;2022-10-17T02:02:23;4.70;;;2.37;;
2147;SDS011;1080;48.724;9.104;2022-10-17T02:04:52;3.70;;;2.20;;
2147;SDS011;1080;48.724;9.104;2022-10-17T02:07:21;3.20;;;2.90;;
2147;SDS011;1080;48.724;9.104;2022-10-17T02:09:48;3.97;;;2.40;;
2147;SDS011;1080;48.724;9.104;2022-10-17T02:12:26;4.50;;;2.50;;
2147;SDS011;1080;48.724;9.104;2022-10-17T02:15:04;12.57;;;3.23;;
2147;SDS011;1080;48.724;9.104;2022-10-17T02:17:43;2.67;;;2.27;;
2147;SDS011;1080;48.724;9.104;2022-10-17T02:20:16;2.97;;;2.37;;
2147;SDS011;1080;48.724;9.104;2022-10-17T02:22:51;7.20;;;2.43;;
2147;SDS011;1080;48.724;9.104;2022-10-17T02:25:22;6.60;;;3.10;;
2147;SDS011;1080;48.724;9.104;2022-10-17T02:28:00;3.07;;;1.67;;
2147;SDS011;1080;48.724;9.104;2022-10-17T02:30:34;5.17;;;2.60;;
2147;SDS011;1080;48.724;9.104;2022-10-17T02:33:08;4.77;;;2.57;;
2147;SDS011;1080;48.724;9.104;2022-10-17T02:35:39;8.23;;;2.43;;
2147;SDS011;1080;48.724;9.104;2022-10-17T02:38:10;3.20;;;2.00;;
2147;SDS011;1080;48.724;9.104;2022-10-17T02:40:38;3.10;;;2.43;;
2147;SDS011;1080;48.724;9.104;2022-10-17T02:43:06;8.83;;;4.00;;
2147;SDS011;1080;48.724;9.104;2022-10-17T02:45:33;4.40;;;2.33;;
2147;SDS011;1080;48.724;9.104;2022-10-17T02:48:02;3.37;;;2.40;;
2147;SDS011;1080;48.724;9.104;2022-10-17T02:50:46;2.97;;;2.60;;
2147;SDS011;1080;48.724;9.104;2022-10-17T02:53:20;5.40;;;2.40;;
2147;SDS011;1080;48.724;9.104;2022-10-17T02:55:57;6.73;;;2.47;;
2147;SDS011;1080;48.724;9.104;2022-10-17T02:58:29;9.80;;;2.60;;
2147;SDS011;1080;48.724;9.104;2022-10-17T03:00:58;6.40;;;2.33;;
2147;SDS011;1080;48.724;9.104;2022-10-17T03:03:26;7.13;;;2.40;;
2147;SDS011;1080;48.724;9.104;2022-10-17T03:05:56;9.97;;;1.97;;
2147;SDS011;1080;48.724;9.104;2022-10-17T03:08:23;5.03;;;2.17;;
2147;SDS011;1080;48.724;9.104;2022-10-17T03:10:50;9.33;;;2.47;;
2147;SDS011;1080;48.724;9.104;2022-10-17T03:13:17;2.90;;;2.00;;
2147;SDS011;1080;48.724;9.104;2022-10-17T03:15:45;3.87;;;2.13;;
2147;SDS011;1080;48.724;9.104;2022-10-17T03:18:12;2.90;;;2.00;;
2147;SDS011;1080;48.724;9.104;2022-10-17T03:20:39;5.43;;;2.43;;
2147;SDS011;1080;48.724;9.104;2022-10-17T03:23:07;8.03;;;2.40;;
2147;SDS011;1080;48.724;9.104;2022-10-17T03:25:34;8.40;;;3.07;;
2147;SDS011;1080;48.724;9.104;2022-10-17T03:28:01;5.33;;;2.00;;
2147;SDS011;1080;48.724;9.104;2022-10-17T03:30:29;4.70;;;2.87;;
2147;SDS011;1080;48.724;9.104;2022-10-17T03:32:57;4.27;;;2.13;;
2147;SDS011;1080;48.724;9.104;2022-10-17T03:35:24;3.40;;;2.47;;
2147;SDS011;1080;48.724;9.104;2022-10-17T03:37:51;4.57;;;2.37;;
2147;SDS011;1080;48.724;9.104;2022-10-17T03:40:20;2.90;;;2.13;;
2147;SDS011;1080;48.724;9.104;2022-10-17T03:42:47;8.43;;;2.30;;
2147;SDS011;1080;48.724;9.104;2022-10-17T03:45:14;7.00;;;2.30;;
2147;SDS011;1080;48.724;9.104;2022-10-17T03:47:41;3.87;;;2.00;;
2147;SDS011;1080;48.724;9.104;2022-10-17T03:50:08;4.43;;;2.20;;
2147;SDS011;1080;48.724;9.104;2022-10-17T03:52:35;13.83;;;3.20;;
2147;SDS011;1080;48.724;9.104;2022-10-17T03:55:02;4.33;;;2.20;;
2147;SDS011;1080;48.724;9.104;2022-10-17T03:57:31;5.53;;;2.17;;
2147;SDS011;1080;48.724;9.104;2022-10-17T03:59:59;5.70;;;2.63;;
2147;SDS011;1080;48.724;9.104;2022-10-17T04:02:26;6.03;;;2.93;;
2147;SDS011;1080;48.724;9.104;2022-10-17T04:04:54;3.60;;;2.67;;
2147;SDS011;1080;48.724;9.104;2022-10-17T04:07:21;6.70;;;2.40;;
2147;SDS011;1080;48.724;9.104;2022-10-17T04:09:48;4.73;;;2.07;;
2147;SDS011;1080;48.724;9.104;2022-10-17T04:12:15;4.23;;;2.20;;
2147;SDS011;1080;48.724;9.104;2022-10-17T04:14:43;8.20;;;2.50;;
2147;SDS011;1080;48.724;9.104;2022-10-17T04:17:10;3.67;;;1.83;;
2147;SDS011;1080;48.724;9.104;2022-10-17T04:19:37;4.20;;;2.43;;
2147;SDS011;1080;48.724;9.104;2022-10-17T04:22:04;4.60;;;2.10;;
2147;SDS011;1080;48.724;9.104;2022-10-17T04:24:32;7.33;;;5.07;;
2147;SDS011;1080;48.724;9.104;2022-10-17T04:26:59;5.43;;;3.73;;
2147;SDS011;1080;48.724;9.104;2022-10-17T04:29:26;7.77;;;3.53;;
2147;SDS011;1080;48.724;9.104;2022-10-17T04:31:55;4.50;;;2.47;;
2147;SDS011;1080;48.724;9.104;2022-10-17T04:34:22;5.70;;;2.67;;
2147;SDS011;1080;48.724;9.104;2022-10-17T04:36:49;4.83;;;2.50;;
2147;SDS011;1080;48.724;9.104;2022-10-17T04:39:16;10.80;;;2.93;;
2147;SDS011;1080;48.724;9.104;2022-10-17T04:41:43;3.60;;;2.83;;
2147;SDS011;1080;48.724;9.104;2022-10-17T04:44:11;4.30;;;2.50;;
2147;SDS011;1080;48.724;9.104;2022-10-17T04:46:38;5.07;;;2.03;;
2147;SDS011;1080;48.724;9.104;2022-10-17T04:49:06;15.53;;;2.03;;
2147;SDS011;1080;48.724;9.104;2022-10-17T04:51:33;3.23;;;2.60;;
2147;SDS011;1080;48.724;9.104;2022-10-17T04:54:00;2.90;;;2.20;;
2147;SDS011;1080;48.724;9.104;2022-10-17T04:56:28;3.30;;;2.20;;
2147;SDS011;1080;48.724;9.104;2022-10-17T04:58:55;3.93;;;2.50;;
2147;SDS011;1080;48.724;9.104;2022-10-17T05:01:23;6.53;;;2.37;;
2147;SDS011;1080;48.724;9.104;2022-10-17T05:03:50;7.17;;;4.73;;
2147;SDS011;1080;48.724;9.104;2022-10-17T05:06:19;6.50;;;4.30;;
2147;SDS011;1080;48.724;9.104;2022-10-17T05:08:47;4.40;;;2.60;;
2147;SDS011;1080;48.724;9.104;2022-10-17T05:11:16;10.30;;;3.30;;
2147;SDS011;1080;48.724;9.104;2022-10-17T05:13:48;5.10;;;3.70;;
2147;SDS011;1080;48.724;9.104;2022-10-17T05:16:16;3.83;;;2.93;;
2147;SDS011;1080;48.724;9.104;2022-10-17T05:18:43;4.20;;;3.10;;
2147;SDS011;1080;48.724;9.104;2022-10-17T05:21:10;16.17;;;3.07;;
2147;SDS011;1080;48.724;9.104;2022-10-17T05:23:38;6.43;;;3.07;;
2147;SDS011;1080;48.724;9.104;2022-10-17T05:26:06;3.90;;;3.30;;
2147;SDS011;1080;48.724;9.104;2022-10-17T05:28:33;5.07;;;3.00;;
2147;SDS011;1080;48.724;9.104;2022-10-17T05:31:01;3.33;;;2.60;;
2147;SDS011;1080;48.724;9.104;2022-10-17T05:33:28;10.50;;;3.13;;
2147;SDS011;1080;48.724;9.104;2022-10-17T05:35:55;5.50;;;3.20;;
2147;SDS011;1080;48.724;9.104;2022-10-17T05:38:22;5.70;;;3.10;;
2147;SDS011;1080;48.724;9.104;2022-10-17T05:40:51;7.93;;;3.00;;
2147;SDS011;1080;48.724;9.104;2022-10-17T05:43:18;3.50;;;2.90;;
2147;SDS011;1080;48.724;9.104;2022-10-17T05:45:45;5.40;;;3.10;;
2147;SDS011;1080;48.724;9.104;2022-10-17T05:48:12;6.03;;;3.10;;
2147;SDS011;1080;48.724;9.104;2022-10-17T05:50:39;8.00;;;4.23;;
2147;SDS011;1080;48.724;9.104;2022-10-17T05:53:06;7.90;;;3.53;;
2147;SDS011;1080;48.724;9.104;2022-10-17T05:55:33;5.20;;;2.73;;
2147;SDS011;1080;48.724;9.104;2022-10-17T05:58:02;8.90;;;3.10;;
2147;SDS011;1080;48.724;9.104;2022-10-17T06:00:29;5.27;;;2.63;;
2147;SDS011;1080;48.724;9.104;2022-10-17T06:02:56;10.33;;;4.00;;
2147;SDS011;1080;48.724;9.104;2022-10-17T06:05:23;4.03;;;3.30;;
2147;SDS011;1080;48.724;9.104;2022-10-17T06:07:50;9.53;;;3.30;;
2147;SDS011;1080;48.724;9.104;2022-10-17T06:10:17;14.70;;;4.80;;
2147;SDS011;1080;48.724;9.104;2022-10-17T06:12:45;7.20;;;3.20;;
2147;SDS011;1080;48.724;9.104;2022-10-17T06:15:13;5.13;;;3.00;;
2147;SDS011;1080;48.724;9.104;2022-10-17T06:17:40;3.30;;;3.00;;
2147;SDS011;1080;48.724;9.104;2022-10-17T06:20:07;7.87;;;3.00;;
2147;SDS011;1080;48.724;9.104;2022-10-17T06:22:35;3.80;;;2.93;;
2147;SDS011;1080;48.724;9.104;2022-10-17T06:25:02;3.17;;;2.87;;
2147;SDS011;1080;48.724;9.104;2022-10-17T06:27:29;5.60;;;3.27;;
2147;SDS011;1080;48.724;9.104;2022-10-17T06:29:56;18.73;;;3.40;;
2147;SDS011;1080;48.724;9.104;2022-10-17T06:32:24;4.23;;;2.93;;
2147;SDS011;1080;48.724;9.104;2022-10-17T06:34:51;3.80;;;2.80;;
2147;SDS011;1080;48.724;9.104;2022-10-17T06:37:18;4.90;;;3.33;;
2147;SDS011;1080;48.724;9.104;2022-10-17T06:39:45;9.63;;;4.00;;
2147;SDS011;1080;48.724;9.104;2022-10-17T06:42:12;10.43;;;3.30;;
2147;SDS011;1080;48.724;9.104;2022-10-17T06:44:39;6.33;;;3.80;;
2147;SDS011;1080;48.724;9.104;2022-10-17T06:47:07;4.90;;;3.67;;
2147;SDS011;1080;48.724;9.104;2022-10-17T06:49:36;4.57;;;3.80;;
2147;SDS011;1080;48.724;9.104;2022-10-17T06:52:03;5.87;;;3.80;;
2147;SDS011;1080;48.724;9.104;2022-10-17T06:54:30;5.20;;;3.70;;
2147;SDS011;1080;48.724;9.104;2022-10-17T06:56:57;6.57;;;3.20;;
2147;SDS011;1080;48.724;9.104;2022-10-17T06:59:24;7.77;;;4.30;;
2147;SDS011;1080;48.724;9.104;2022-10-17T07:01:51;7.10;;;3.70;;
2147;SDS011;1080;48.724;9.104;2022-10-17T07:04:18;7.07;;;3.40;;
2147;SDS011;1080;48.724;9.104;2022-10-17T07:06:47;3.50;;;2.60;;
2147;SDS011;1080;48.724;9.104;2022-10-17T07:09:13;3.70;;;3.20;;
2147;SDS011;1080;48.724;9.104;2022-10-17T07:11:41;5.00;;;2.53;;
2147;SDS011;1080;48.724;9.104;2022-10-17T07:14:08;5.90;;;2.73;;
2147;SDS011;1080;48.724;9.104;2022-10-17T07:16:35;3.27;;;2.70;;
2147;SDS011;1080;48.724;9.104;2022-10-17T07:19:02;7.17;;;3.40;;
2147;SDS011;1080;48.724;9.104;2022-10-17T07:21:29;2.80;;;2.33;;
2147;SDS011;1080;48.724;9.104;2022-10-17T07:23:58;3.17;;;2.00;;
2147;SDS011;1080;48.724;9.104;2022-10-17T07:26:25;3.50;;;2.10;;
2147;SDS011;1080;48.724;9.104;2022-10-17T07:28:52;4.80;;;2.33;;
2147;SDS011;1080;48.724;9.104;2022-10-17T07:31:21;4.10;;;2.30;;
2147;SDS011;1080;48.724;9.104;2022-10-17T07:33:49;3.87;;;2.10;;
2147;SDS011;1080;48.724;9.104;2022-10-17T07:36:16;6.40;;;2.23;;
2147;SDS011;1080;48.724;9.104;2022-10-17T07:38:44;2.17;;;1.97;;
2147;SDS011;1080;48.724;9.104;2022-10-17T07:41:12;4.07;;;1.90;;
2147;SDS011;1080;48.724;9.104;2022-10-17T07:43:39;4.23;;;2.13;;
2147;SDS011;1080;48.724;9.104;2022-10-17T07:46:07;5.87;;;2.57;;
2147;SDS011;1080;48.724;9.104;2022-10-17T07:48:35;3.83;;;1.87;;
2147;SDS011;1080;48.724;9.104;2022-10-17T07:51:03;6.10;;;2.03;;
2147;SDS011;1080;48.724;9.104;2022-10-17T07:53:33;3.80;;;2.10;;
2147;SDS011;1080;48.724;9.104;2022-10-17T07:56:02;2.67;;;2.20;;
2147;SDS011;1080;48.724;9.104;2022-10-17T07:58:32;5.27;;;2.40;;
2147;SDS011;1080;48.724;9.104;2022-10-17T08:00:59;2.50;;;1.50;;
2147;SDS011;1080;48.724;9.104;2022-10-17T08:03:26;4.17;;;1.60;;
2147;SDS011;1080;48.724;9.104;2022-10-17T08:05:55;2.63;;;1.53;;
2147;SDS011;1080;48.724;9.104;2022-10-17T08:08:23;3.70;;;1.90;;
2147;SDS011;1080;48.724;9.104;2022-10-17T08:10:50;3.43;;;1.80;;
2147;SDS011;1080;48.724;9.104;2022-10-17T08:13:18;4.00;;;1.77;;
2147;SDS011;1080;48.724;9.104;2022-10-17T08:15:47;3.40;;;2.00;;
2147;SDS011;1080;48.724;9.104;2022-10-17T08:18:14;4.90;;;2.20;;
2147;SDS011;1080;48.724;9.104;2022-10-17T08:20:41;3.20;;;1.90;;
2147;SDS011;1080;48.724;9.104;2022-10-17T08:23:08;1.60;;;1.50;;
2147;SDS011;1080;48.724;9.104;2022-10-17T08:25:36;6.93;;;1.67;;
2147;SDS011;1080;48.724;9.104;2022-10-17T08:28:04;5.83;;;1.63;;
2147;SDS011;1080;48.724;9.104;2022-10-17T08:30:31;2.23;;;1.87;;
2147;SDS011;1080;48.724;9.104;2022-10-17T08:33:00;2.80;;;1.50;;
2147;SDS011;1080;48.724;9.104;2022-10-17T08:35:26;3.13;;;1.83;;
2147;SDS011;1080;48.724;9.104;2022-10-17T08:37:53;4.60;;;2.10;;
2147;SDS011;1080;48.724;9.104;2022-10-17T08:40:21;3.20;;;1.60;;
2147;SDS011;1080;48.724;9.104;2022-10-17T08:42:54;4.50;;;1.97;;
2147;SDS011;1080;48.724;9.104;2022-10-17T08:45:29;5.03;;;1.80;;
2147;SDS011;1080;48.724;9.104;2022-10-17T08:48:03;4.30;;;1.60;;
2147;SDS011;1080;48.724;9.104;2022-10-17T08:50:35;2.07;;;1.73;;
2147;SDS011;1080;48.724;9.104;2022-10-17T08:53:06;5.23;;;1.80;;
2147;SDS011;1080;48.724;9.104;2022-10-17T08:55:41;6.80;;;2.40;;
2147;SDS011;1080;48.724;9.104;2022-10-17T08:58:12;4.63;;;1.50;;
2147;SDS011;1080;48.724;9.104;2022-10-17T09:00:40;2.57;;;1.80;;
2147;SDS011;1080;48.724;9.104;2022-10-17T09:03:16;4.80;;;2.20;;
2147;SDS011;1080;48.724;9.104;2022-10-17T09:05:54;2.90;;;2.03;;
2147;SDS011;1080;48.724;9.104;2022-10-17T09:08:34;4.20;;;2.10;;
2147;SDS011;1080;48.724;9.104;2022-10-17T09:11:08;1.73;;;1.63;;
2147;SDS011;1080;48.724;9.104;2022-10-17T09:13:47;5.37;;;2.00;;
2147;SDS011;1080;48.724;9.104;2022-10-17T09:16:30;3.30;;;2.47;;
2147;SDS011;1080;48.724;9.104;2022-10-17T09:19:09;4.00;;;2.00;;
2147;SDS011;1080;48.724;9.104;2022-10-17T09:21:42;1.90;;;1.70;;
2147;SDS011;1080;48.724;9.104;2022-10-17T09:24:14;3.40;;;2.43;;
2147;SDS011;1080;48.724;9.104;2022-10-17T09:26:44;3.70;;;1.67;;
2147;SDS011;1080;48.724;9.104;2022-10-17T09:29:14;4.40;;;1.60;;
2147;SDS011;1080;48.724;9.104;2022-10-17T09:31:46;1.80;;;1.70;;
2147;SDS011;1080;48.724;9.104;2022-10-17T09:34:18;2.60;;;1.80;;
2147;SDS011;1080;48.724;9.104;2022-10-17T09:36:45;3.67;;;2.27;;
2147;SDS011;1080;48.724;9.104;2022-10-17T09:39:15;7.33;;;1.60;;
2147;SDS011;1080;48.724;9.104;2022-10-17T09:41:46;1.77;;;1.43;;
2147;SDS011;1080;48.724;9.104;2022-10-17T09:44:16;1.97;;;1.50;;
2147;SDS011;1080;48.724;9.104;2022-10-17T09:49:42;2.13;;;1.60;;
2147;SDS011;1080;48.724;9.104;2022-10-17T09:52:11;4.10;;;1.60;;
2147;SDS011;1080;48.724;9.104;2022-10-17T09:54:41;2.83;;;1.80;;
2147;SDS011;1080;48.724;9.104;2022-10-17T09:57:11;1.60;;;1.50;;
2147;SDS011;1080;48.724;9.104;2022-10-17T09:59:39;2.30;;;1.73;;
2147;SDS011;1080;48.724;9.104;2022-10-17T10:02:09;4.93;;;1.80;;
2147;SDS011;1080;48.724;9.104;2022-10-17T10:04:56;3.47;;;1.87;;
2147;SDS011;1080;48.724;9.104;2022-10-17T10:07:24;3.07;;;1.80;;
2147;SDS011;1080;48.724;9.104;2022-10-17T10:09:53;2.43;;;1.77;;
2147;SDS011;1080;48.724;9.104;2022-10-17T10:12:21;2.53;;;2.17;;
2147;SDS011;1080;48.724;9.104;2022-10-17T10:14:49;4.63;;;2.00;;
2147;SDS011;1080;48.724;9.104;2022-10-17T10:17:27;5.40;;;2.30;;
2147;SDS011;1080;48.724;9.104;2022-10-17T10:23:06;4.10;;;1.90;;
2147;SDS011;1080;48.724;9.104;2022-10-17T10:25:41;4.03;;;2.20;;
2147;SDS011;1080;48.724;9.104;2022-10-17T10:28:16;3.50;;;2.00;;
2147;SDS011;1080;48.724;9.104;2022-10-17T10:30:45;1.80;;;1.67;;
2147;SDS011;1080;48.724;9.104;2022-10-17T10:33:13;5.07;;;1.83;;
2147;SDS011;1080;48.724;9.104;2022-10-17T10:35:41;2.57;;;1.93;;
2147;SDS011;1080;48.724;9.104;2022-10-17T10:38:16;2.07;;;1.77;;
2147;SDS011;1080;48.724;9.104;2022-10-17T10:40:44;3.30;;;2.00;;
2147;SDS011;1080;48.724;9.104;2022-10-17T10:43:19;2.70;;;1.70;;
2147;SDS011;1080;48.724;9.104;2022-10-17T10:45:49;3.47;;;2.00;;
2147;SDS011;1080;48.724;9.104;2022-10-17T10:48:18;4.63;;;1.90;;
2147;SDS011;1080;48.724;9.104;2022-10-17T10:50:49;4.53;;;1.87;;
2147;SDS011;1080;48.724;9.104;2022-10-17T10:53:24;4.13;;;1.90;;
2147;SDS011;1080;48.724;9.104;2022-10-17T10:56:07;3.83;;;1.77;;
2147;SDS011;1080;48.724;9.104;2022-10-17T10:58:39;4.40;;;1.73;;
2147;SDS011;1080;48.724;9.104;2022-10-17T11:01:14;1.90;;;1.60;;
2147;SDS011;1080;48.724;9.104;2022-10-17T11:03:51;2.87;;;1.33;;
2147;SDS011;1080;48.724;9.104;2022-10-17T11:06:33;1.50;;;1.40;;
2147;SDS011;1080;48.724;9.104;2022-10-17T11:09:10;2.60;;;1.67;;
2147;SDS011;1080;48.724;9.104;2022-10-17T11:11:43;5.93;;;2.17;;
2147;SDS011;1080;48.724;9.104;2022-10-17T11:14:14;3.43;;;1.60;;
2147;SDS011;1080;48.724;9.104;2022-10-17T11:16:48;3.27;;;1.40;;
2147;SDS011;1080;48.724;9.104;2022-10-17T11:19:23;3.50;;;1.30;;
2147;SDS011;1080;48.724;9.104;2022-10-17T11:21:59;1.87;;;1.40;;
2147;SDS011;1080;48.724;9.104;2022-10-17T11:24:34;2.23;;;1.30;;
2147;SDS011;1080;48.724;9.104;2022-10-17T11:27:02;2.60;;;2.40;;
2147;SDS011;1080;48.724;9.104;2022-10-17T11:29:31;4.33;;;1.70;;
2147;SDS011;1080;48.724;9.104;2022-10-17T11:32:00;1.90;;;1.50;;
2147;SDS011;1080;48.724;9.104;2022-10-17T11:34:32;1.80;;;1.60;;
2147;SDS011;1080;48.724;9.104;2022-10-17T11:37:08;2.40;;;1.70;;
2147;SDS011;1080;48.724;9.104;2022-10-17T11:39:40;2.03;;;1.50;;
2147;SDS011;1080;48.724;9.104;2022-10-17T11:42:13;1.53;;;1.23;;
2147;SDS011;1080;48.724;9.104;2022-10-17T11:44:43;5.40;;;1.73;;
2147;SDS011;1080;48.724;9.104;2022-10-17T11:47:12;3.37;;;1.30;;
2147;SDS011;1080;48.724;9.104;2022-10-17T11:49:54;3.93;;;1.33;;
2147;SDS011;1080;48.724;9.104;2022-10-17T11:52:29;2.23;;;1.40;;
2147;SDS011;1080;48.724;9.104;2022-10-17T11:55:03;3.70;;;1.67;;
2147;SDS011;1080;48.724;9.104;2022-10-17T11:57:39;3.57;;;1.67;;
2147;SDS011;1080;48.724;9.104;2022-10-17T12:00:19;3.57;;;2.03;;
2147;SDS011;1080;48.724;9.104;2022-10-17T12:02:53;10.30;;;2.50;;
2147;SDS011;1080;48.724;9.104;2022-10-17T12:05:32;4.37;;;2.30;;
2147;SDS011;1080;48.724;9.104;2022-10-17T12:08:08;3.03;;;1.60;;
2147;SDS011;1080;48.724;9.104;2022-10-17T12:10:44;4.70;;;1.97;;
2147;SDS011;1080;48.724;9.104;2022-10-17T12:19:20;5.27;;;1.57;;
2147;SDS011;1080;48.724;9.104;2022-10-17T12:21:55;4.70;;;1.80;;
2147;SDS011;1080;48.724;9.104;2022-10-17T12:24:33;4.67;;;1.70;;
2147;SDS011;1080;48.724;9.104;2022-10-17T12:27:21;3.53;;;1.80;;
2147;SDS011;1080;48.724;9.104;2022-10-17T12:29:48;4.90;;;1.37;;
2147;SDS011;1080;48.724;9.104;2022-10-17T12:32:16;3.43;;;1.43;;
2147;SDS011;1080;48.724;9.104;2022-10-17T12:34:49;3.43;;;1.97;;
2147;SDS011;1080;48.724;9.104;2022-10-17T12:46:43;2.00;;;1.57;;
2147;SDS011;1080;48.724;9.104;2022-10-17T12:49:35;1.90;;;1.70;;
2147;SDS011;1080;48.724;9.104;2022-10-17T12:54:57;2.23;;;1.10;;
2147;SDS011;1080;48.724;9.104;2022-10-17T12:57:33;2.00;;;1.47;;
2147;SDS011;1080;48.724;9.104;2022-10-17T13:00:12;2.20;;;1.40;;
2147;SDS011;1080;48.724;9.104;2022-10-17T13:02:43;2.67;;;1.20;;
2147;SDS011;1080;48.724;9.104;2022-10-17T13:05:12;1.73;;;1.43;;
2147;SDS011;1080;48.724;9.104;2022-10-17T13:07:42;3.97;;;1.40;;
2147;SDS011;1080;48.724;9.104;2022-10-17T13:10:20;2.23;;;1.27;;
2147;SDS011;1080;48.724;9.104;2022-10-17T13:12:52;4.23;;;1.47;;
2147;SDS011;1080;48.724;9.104;2022-10-17T13:15:28;5.40;;;1.40;;
2147;SDS011;1080;48.724;9.104;2022-10-17T13:17:56;4.17;;;1.30;;
2147;SDS011;1080;48.724;9.104;2022-10-17T13:20:25;2.30;;;1.50;;
2147;SDS011;1080;48.724;9.104;2022-10-17T13:22:53;6.83;;;1.80;;
2147;SDS011;1080;48.724;9.104;2022-10-17T13:25:22;3.03;;;1.50;;
2147;SDS011;1080;48.724;9.104;2022-10-17T13:28:01;3.60;;;1.30;;
2147;SDS011;1080;48.724;9.104;2022-10-17T13:30:31;3.10;;;1.70;;
2147;SDS011;1080;48.724;9.104;2022-10-17T13:33:00;4.07;;;1.73;;
2147;SDS011;1080;48.724;9.104;2022-10-17T13:35:28;2.20;;;1.37;;
2147;SDS011;1080;48.724;9.104;2022-10-17T13:37:57;2.47;;;1.47;;
2147;SDS011;1080;48.724;9.104;2022-10-17T13:40:27;3.23;;;1.40;;
2147;SDS011;1080;48.724;9.104;2022-10-17T13:42:57;4.80;;;2.17;;
2147;SDS011;1080;48.724;9.104;2022-10-17T13:45:27;4.83;;;2.23;;
2147;SDS011;1080;48.724;9.104;2022-10-17T13:47:56;4.10;;;1.93;;
2147;SDS011;1080;48.724;9.104;2022-10-17T13:50:26;5.37;;;4.03;;
2147;SDS011;1080;48.724;9.104;2022-10-17T13:53:07;4.10;;;3.07;;
2147;SDS011;1080;48.724;9.104;2022-10-17T13:55:52;4.17;;;2.50;;
2147;SDS011;1080;48.724;9.104;2022-10-17T13:58:23;7.83;;;3.10;;
2147;SDS011;1080;48.724;9.104;2022-10-17T14:00:51;2.70;;;2.20;;
2147;SDS011;1080;48.724;9.104;2022-10-17T14:03:19;5.23;;;1.70;;
2147;SDS011;1080;48.724;9.104;2022-10-17T14:05:59;5.43;;;1.90;;
2147;SDS011;1080;48.724;9.104;2022-10-17T14:08:31;2.37;;;2.00;;
2147;SDS011;1080;48.724;9.104;2022-10-17T14:10:59;2.83;;;2.00;;
2147;SDS011;1080;48.724;9.104;2022-10-17T14:13:29;3.33;;;2.10;;
2147;SDS011;1080;48.724;9.104;2022-10-17T14:16:00;6.30;;;2.47;;
2147;SDS011;1080;48.724;9.104;2022-10-17T14:18:29;4.73;;;2.20;;
2147;SDS011;1080;48.724;9.104;2022-10-17T14:20:58;4.33;;;1.60;;
2147;SDS011;1080;48.724;9.104;2022-10-17T14:23:31;5.30;;;1.97;;
2147;SDS011;1080;48.724;9.104;2022-10-17T14:26:04;2.43;;;1.93;;
2147;SDS011;1080;48.724;9.104;2022-10-17T14:28:34;9.93;;;1.90;;
2147;SDS011;1080;48.724;9.104;2022-10-17T14:31:12;5.07;;;2.50;;
2147;SDS011;1080;48.724;9.104;2022-10-17T14:33:49;4.77;;;2.13;;
2147;SDS011;1080;48.724;9.104;2022-10-17T14:36:18;5.93;;;1.90;;
2147;SDS011;1080;48.724;9.104;2022-10-17T14:38:46;4.40;;;1.93;;
2147;SDS011;1080;48.724;9.104;2022-10-17T14:41:21;2.53;;;1.90;;
2147;SDS011;1080;48.724;9.104;2022-10-17T14:43:56;9.40;;;2.70;;
2147;SDS011;1080;48.724;9.104;2022-10-17T14:46:24;3.10;;;1.60;;
2147;SDS011;1080;48.724;9.104;2022-10-17T14:48:58;2.17;;;1.83;;
2147;SDS011;1080;48.724;9.104;2022-10-17T14:51:29;2.00;;;1.67;;
2147;SDS011;1080;48.724;9.104;2022-10-17T14:56:48;5.10;;;2.73;;
2147;SDS011;1080;48.724;9.104;2022-10-17T14:59:18;5.07;;;2.13;;
2147;SDS011;1080;48.724;9.104;2022-10-17T15:01:47;5.77;;;2.13;;
2147;SDS011;1080;48.724;9.104;2022-10-17T15:04:15;3.30;;;2.27;;
2147;SDS011;1080;48.724;9.104;2022-10-17T15:06:42;5.87;;;2.10;;
2147;SDS011;1080;48.724;9.104;2022-10-17T15:09:09;4.77;;;1.90;;
2147;SDS011;1080;48.724;9.104;2022-10-17T15:11:37;6.60;;;2.10;;
2147;SDS011;1080;48.724;9.104;2022-10-17T15:14:04;5.23;;;2.57;;
2147;SDS011;1080;48.724;9.104;2022-10-17T15:16:33;3.60;;;2.10;;
2147;SDS011;1080;48.724;9.104;2022-10-17T15:19:01;3.90;;;1.70;;
2147;SDS011;1080;48.724;9.104;2022-10-17T15:21:28;5.43;;;2.07;;
2147;SDS011;1080;48.724;9.104;2022-10-17T15:23:55;6.53;;;2.33;;
2147;SDS011;1080;48.724;9.104;2022-10-17T15:26:24;4.97;;;2.10;;
2147;SDS011;1080;48.724;9.104;2022-10-17T15:28:54;4.60;;;2.70;;
2147;SDS011;1080;48.724;9.104;2022-10-17T15:31:22;5.00;;;1.97;;
2147;SDS011;1080;48.724;9.104;2022-10-17T15:33:51;3.07;;;1.90;;
2147;SDS011;1080;48.724;9.104;2022-10-17T15:36:19;2.63;;;1.70;;
2147;SDS011;1080;48.724;9.104;2022-10-17T15:38:48;8.53;;;2.27;;
2147;SDS011;1080;48.724;9.104;2022-10-17T15:41:16;4.20;;;2.40;;
2147;SDS011;1080;48.724;9.104;2022-10-17T15:43:43;4.50;;;2.00;;
2147;SDS011;1080;48.724;9.104;2022-10-17T15:46:11;8.33;;;2.40;;
2147;SDS011;1080;48.724;9.104;2022-10-17T15:48:39;3.60;;;1.90;;
2147;SDS011;1080;48.724;9.104;2022-10-17T15:51:08;6.80;;;2.10;;
2147;SDS011;1080;48.724;9.104;2022-10-17T15:53:35;4.00;;;2.63;;
2147;SDS011;1080;48.724;9.104;2022-10-17T15:56:03;4.50;;;2.20;;
2147;SDS011;1080;48.724;9.104;2022-10-17T15:58:33;4.27;;;2.40;;
2147;SDS011;1080;48.724;9.104;2022-10-17T16:01:01;10.30;;;2.63;;